Tuesday, October 16, 2018, 7:56 PM EDT
Back to Local

KSMQ, Somerville Somerset Airport

Location: Bedminster, NJ, United States Lat: 40.617
Local Time: 7:56 PM EDT (23:56 GMT) Lon: -74.667
Time Zone: US/Eastern Elev: 104 ft

Show me the last for .
Show Decoded

2018-10-16 18:53 METAR KSMQ 162253Z AUTO 19003KT 10SM CLR 08/04 A3006 RMK AO2 SLP180 T00830044 =
2018-10-16 17:53 METAR KSMQ 162153Z AUTO 21004KT 10SM CLR 11/03 A3006 RMK AO2 SLP180 T01060028 =
2018-10-16 16:53 METAR KSMQ 162053Z AUTO VRB03KT 10SM CLR 12/02 A3005 RMK AO2 SLP176 6////
                 T01220017 56018 =
2018-10-16 15:53 METAR KSMQ 161953Z AUTO VRB05KT 10SM CLR 13/00 A3006 RMK AO2 SLP180 T01280000 =
2018-10-16 14:53 METAR KSMQ 161853Z AUTO 27006KT 10SM CLR 13/M01 A3008 RMK AO2 SLP187 T01281006 =
2018-10-16 13:53 METAR KSMQ 161753Z AUTO 00000KT 10SM CLR 12/01 A3010 RMK AO2 SLP194 6////
                 T01220006 58023 PNO $ =
2018-10-16 12:53 METAR KSMQ 161653Z AUTO 30007KT 280V350 10SM CLR 12/M01 A3013 RMK AO2 SLP203
                 T01171006 PNO $ =
2018-10-16 11:53 METAR KSMQ 161553Z AUTO 31006KT 10SM CLR 11/M01 A3015 RMK AO2 SLP210 T01111006
                 PWINO PNO $ =
2018-10-16 10:53 METAR KSMQ 161453Z AUTO 31013KT 10SM CLR 09/M01 A3017 RMK AO2 SLP217 6////
                 T00941011 50003 PNO $ =
2018-10-16 09:53 METAR KSMQ 161353Z AUTO 32012KT 10SM CLR 09/M01 A3018 RMK AO2 SLP220 T00941011 =
2018-10-16 08:53 METAR KSMQ 161253Z AUTO 32009G14KT 10SM CLR 08/M01 A3018 RMK AO2 SLP221
                 T00831006 =
2018-10-16 07:53 METAR KSMQ 161153Z AUTO 10SM CLR 07/M01 A3016 RMK AO2 SLP214 70009 T00721011
                 10139 20072 51031 =
2018-10-16 06:53 METAR KSMQ 161053Z AUTO 33009G17KT 10SM CLR 08/00 A3014 RMK AO2 SLP206 T00780000
                 =
2018-10-16 05:53 METAR KSMQ 160953Z AUTO 35009KT 10SM CLR 10/04 A3011 RMK AO2 SLP197 T01000039 =
2018-10-16 04:53 METAR KSMQ 160853Z AUTO 32010G20KT 10SM CLR 12/04 A3007 RMK AO2 SLP183 T01170039
                 53029 =
2018-10-16 03:53 METAR KSMQ 160753Z AUTO 30009KT 260V330 10SM CLR 12/04 A3002 RMK AO2 SLP167
                 T01220044 =
2018-10-16 02:53 METAR KSMQ 160653Z AUTO 30007KT 270V330 10SM CLR 13/08 A3001 RMK AO2 SLP162
                 T01280078 =
2018-10-16 01:53 METAR KSMQ 160553Z AUTO VRB05KT 10SM OVC095 14/09 A2998 RMK AO2 RAE16 SLP154
                 P0000 60008 T01390094 10194 20139 51032 =
2018-10-16 00:53 METAR KSMQ 160453Z AUTO VRB06KT 10SM -RA OVC065 14/13 A2996 RMK AO2 SLP144 P0003
                 T01390128 401940100 =
2018-10-15 23:53 METAR KSMQ 160353Z AUTO 30010G22KT 260V320 7SM -RA FEW021 BKN055 OVC080 16/13
                 A2993 RMK AO2 RAB02 SLP134 P0005 T01560133 =
2018-10-15 23:08 METAR KSMQ 160308Z AUTO 30010G22KT 270V330 3SM RA BR SCT019 BKN030 OVC036 18/16
                 A2991 RMK AO2 RAB02 PRESRR P0003 T01780156 =
2018-10-15 22:53 METAR KSMQ 160253Z AUTO VRB06KT 10SM SCT021 OVC028 19/17 A2989 RMK AO2 RAB30E47
                 SLP120 P0000 60000 T01890172 53009 =
2018-10-15 22:22 METAR KSMQ 160222Z AUTO VRB03KT 10SM BKN023 BKN029 OVC050 19/17 A2988 RMK AO2
                 T01940172 =
2018-10-15 21:53 METAR KSMQ 160153Z AUTO VRB04KT 10SM OVC060 19/17 A2986 RMK AO2 SLP111 T01940172
                 =
2018-10-15 20:53 METAR KSMQ 160053Z AUTO VRB05KT 10SM BKN060 BKN075 19/17 A2986 RMK AO2 SLP113
                 T01890172 =

Support USWX by starting your Amazon purchase here.